createdAt,value
2019-04-25T00:00:13.068Z,0.10
2019-04-25T00:02:42.720Z,0.10
2019-04-25T00:05:12.288Z,0.10
2019-04-25T00:07:39.486Z,0.10
2019-04-25T00:10:06.956Z,0.10
2019-04-25T00:12:34.152Z,0.10
2019-04-25T00:15:01.657Z,0.10
2019-04-25T00:17:31.426Z,0.42
2019-04-25T00:19:58.785Z,0.10
2019-04-25T00:22:31.720Z,0.10
2019-04-25T00:25:15.031Z,0.20
2019-04-25T00:27:35.954Z,0.10
2019-04-25T00:30:04.093Z,0.20
2019-04-25T00:32:31.787Z,0.20
2019-04-25T00:34:59.089Z,0.10
2019-04-25T00:37:26.289Z,0.10
2019-04-25T00:39:53.585Z,0.10
2019-04-25T00:42:20.924Z,0.10
2019-04-25T00:44:48.220Z,0.10
2019-04-25T00:47:15.416Z,0.30
2019-04-25T00:49:44.063Z,0.20
2019-04-25T00:52:11.892Z,0.47
2019-04-25T00:54:39.116Z,0.28
2019-04-25T00:57:06.312Z,0.30
2019-04-25T00:59:38.194Z,0.20
2019-04-25T01:02:16.256Z,0.20
2019-04-25T01:04:43.897Z,0.35
2019-04-25T01:07:12.681Z,0.33
2019-04-25T01:09:40.005Z,0.30
2019-04-25T01:12:08.913Z,0.30
2019-04-25T01:14:36.117Z,0.40
2019-04-25T01:17:03.343Z,0.37
2019-04-25T01:19:30.543Z,0.60
2019-04-25T01:21:57.841Z,0.40
2019-04-25T01:24:25.032Z,0.55
2019-04-25T01:26:53.815Z,0.40
2019-04-25T01:29:21.177Z,0.37
2019-04-25T01:31:48.509Z,0.28
2019-04-25T01:34:17.420Z,0.20
2019-04-25T01:36:55.889Z,0.10
2019-04-25T01:39:24.849Z,0.10
2019-04-25T01:42:11.768Z,0.20
2019-04-25T01:44:46.236Z,0.20
2019-04-25T01:47:14.136Z,0.17
2019-04-25T01:49:41.796Z,0.10
2019-04-25T01:52:09.212Z,0.10
2019-04-25T01:54:36.416Z,0.10
2019-04-25T01:57:04.367Z,0.10
2019-04-25T01:59:31.705Z,0.10
2019-04-25T02:01:59.008Z,0.10
2019-04-25T02:04:26.206Z,0.10
2019-04-25T02:06:54.511Z,0.10
2019-04-25T02:09:23.565Z,0.10
2019-04-25T02:11:54.396Z,0.10
2019-04-25T02:14:21.733Z,0.10
2019-04-25T02:16:49.024Z,0.20
2019-04-25T02:19:16.220Z,0.10
2019-04-25T02:21:43.914Z,0.10
2019-04-25T02:24:11.266Z,0.10
2019-04-25T02:26:38.540Z,0.10
2019-04-25T02:29:05.969Z,0.10
2019-04-25T02:31:34.811Z,0.30
2019-04-25T02:34:06.205Z,0.20
2019-04-25T02:36:31.288Z,0.20
2019-04-25T02:39:01.261Z,0.20
2019-04-25T02:41:27.484Z,0.03
2019-04-25T02:43:59.767Z,0.10
2019-04-25T02:46:25.352Z,0.20
2019-04-25T02:48:59.607Z,0.10
2019-04-25T02:51:28.175Z,0.10
2019-04-25T02:53:57.816Z,0.10
2019-04-25T02:56:33.052Z,0.13
2019-04-25T02:58:54.411Z,0.10
2019-04-25T03:01:25.862Z,0.10
2019-04-25T03:03:51.406Z,0.20
2019-04-25T03:06:18.685Z,0.10
2019-04-25T03:08:45.988Z,0.10
2019-04-25T03:11:14.997Z,0.20
2019-04-25T03:13:44.132Z,0.20
2019-04-25T03:16:11.194Z,0.10
2019-04-25T03:18:44.327Z,0.10
2019-04-25T03:21:25.901Z,0.10
2019-04-25T03:23:54.960Z,0.10
2019-04-25T03:26:23.392Z,0.10
2019-04-25T03:28:51.042Z,0.13
2019-04-25T03:31:22.640Z,0.10
2019-04-25T03:33:47.268Z,0.17
2019-04-25T03:36:16.980Z,0.10
2019-04-25T03:38:44.171Z,0.13
2019-04-25T03:41:11.543Z,0.10
2019-04-25T03:43:38.740Z,0.20
2019-04-25T03:46:07.194Z,0.20
2019-04-25T03:48:36.811Z,0.10
2019-04-25T03:51:05.390Z,0.10
2019-04-25T03:53:33.716Z,0.05
2019-04-25T03:56:02.814Z,0.10
2019-04-25T03:58:30.244Z,0.10
2019-04-25T04:00:57.818Z,0.20
2019-04-25T04:03:25.362Z,0.60
2019-04-25T04:05:54.033Z,0.37
2019-04-25T04:08:21.584Z,0.30
2019-04-25T04:10:48.820Z,0.20
2019-04-25T04:13:16.016Z,0.30
2019-04-25T04:15:43.426Z,0.30
2019-04-25T04:18:14.659Z,0.20
2019-04-25T04:20:43.643Z,0.20
2019-04-25T04:23:15.852Z,0.10
2019-04-25T04:25:43.372Z,0.17
2019-04-25T04:28:10.825Z,0.10
2019-04-25T04:30:38.031Z,0.20
2019-04-25T04:33:06.842Z,0.10
2019-04-25T04:35:34.211Z,0.10
2019-04-25T04:38:01.433Z,0.20
2019-04-25T04:40:28.693Z,0.10
2019-04-25T04:42:55.932Z,0.10
2019-04-25T04:45:23.353Z,0.00
2019-04-25T04:47:50.750Z,0.30
2019-04-25T04:50:18.733Z,0.40
2019-04-25T04:52:46.138Z,0.30
2019-04-25T04:55:16.061Z,0.20
2019-04-25T04:57:43.445Z,0.40
2019-04-25T05:00:12.790Z,0.30
2019-04-25T05:02:50.940Z,0.57
2019-04-25T05:05:31.870Z,0.60
2019-04-25T05:08:00.974Z,0.50
2019-04-25T05:10:28.250Z,0.47
2019-04-25T05:12:55.653Z,0.55
2019-04-25T05:15:24.613Z,0.50
2019-04-25T05:17:51.816Z,0.60
2019-04-25T05:20:19.017Z,0.70
2019-04-25T05:22:46.312Z,0.70
2019-04-25T05:25:15.398Z,0.70
2019-04-25T05:27:57.618Z,0.40
2019-04-25T05:30:14.578Z,0.37
2019-04-25T05:32:42.075Z,0.30
2019-04-25T05:35:09.340Z,0.30
2019-04-25T05:37:36.573Z,0.30
2019-04-25T05:40:05.619Z,0.50
2019-04-25T05:42:51.174Z,0.50
2019-04-25T05:45:20.088Z,0.70
2019-04-25T05:47:47.361Z,0.40
2019-04-25T05:50:15.767Z,0.20
2019-04-25T05:52:43.886Z,0.40
2019-04-25T05:55:14.264Z,0.30
2019-04-25T05:57:47.801Z,0.30
2019-04-25T06:00:11.228Z,0.35
2019-04-25T06:02:38.427Z,0.20
2019-04-25T06:05:06.280Z,0.20
2019-04-25T06:07:33.564Z,0.30
2019-04-25T06:10:11.490Z,0.90
2019-04-25T06:12:40.396Z,0.75
2019-04-25T06:15:07.972Z,1.02
2019-04-25T06:17:43.511Z,0.50
2019-04-25T06:20:13.461Z,0.70
2019-04-25T06:23:00.581Z,0.40
2019-04-25T06:25:32.964Z,0.40
2019-04-25T06:27:59.312Z,0.20
2019-04-25T06:30:28.105Z,0.33
2019-04-25T06:32:55.844Z,0.35
2019-04-25T06:35:24.743Z,0.30
2019-04-25T06:37:53.564Z,0.13
2019-04-25T06:40:21.929Z,0.40
2019-04-25T06:42:49.677Z,0.70
2019-04-25T06:45:18.620Z,0.95
2019-04-25T06:47:47.538Z,1.02
2019-04-25T06:50:15.818Z,1.00
2019-04-25T06:52:43.922Z,0.70
2019-04-25T06:55:11.180Z,0.90
2019-04-25T06:57:38.756Z,0.80
2019-04-25T07:00:07.190Z,0.70
2019-04-25T07:02:35.189Z,0.50
2019-04-25T07:05:03.980Z,0.70
2019-04-25T07:07:31.410Z,0.70
2019-04-25T07:09:58.688Z,0.50
2019-04-25T07:12:28.946Z,0.60
2019-04-25T07:14:55.224Z,0.70
2019-04-25T07:17:24.086Z,0.60
2019-04-25T07:19:51.369Z,0.60
2019-04-25T07:22:18.740Z,0.62
2019-04-25T07:24:46.012Z,0.90
2019-04-25T07:27:30.541Z,0.60
2019-04-25T07:30:26.923Z,1.00
2019-04-25T07:32:46.681Z,0.80
2019-04-25T07:35:13.882Z,0.70
2019-04-25T07:37:41.747Z,0.70
2019-04-25T07:40:09.261Z,0.70
2019-04-25T07:42:36.490Z,0.60
2019-04-25T07:45:05.334Z,0.90
2019-04-25T07:47:35.027Z,0.60
2019-04-25T07:50:01.550Z,0.60
2019-04-25T07:52:29.216Z,0.60
2019-04-25T07:54:56.583Z,0.55
2019-04-25T07:57:24.475Z,0.50
2019-04-25T07:59:53.596Z,0.98
2019-04-25T08:02:20.718Z,0.60
2019-04-25T08:04:47.916Z,2.52
2019-04-25T08:07:15.463Z,2.25
2019-04-25T08:09:44.272Z,0.65
2019-04-25T08:12:13.270Z,0.40
2019-04-25T08:14:43.708Z,0.50
2019-04-25T08:17:14.470Z,0.53
2019-04-25T08:19:41.925Z,0.47
2019-04-25T08:22:09.205Z,0.55
2019-04-25T08:24:37.213Z,0.40
2019-04-25T08:27:04.641Z,0.60
2019-04-25T08:29:31.913Z,0.53
2019-04-25T08:31:59.430Z,0.40
2019-04-25T08:34:26.840Z,0.55
2019-04-25T08:36:54.392Z,0.35
2019-04-25T08:39:21.824Z,0.35
2019-04-25T08:41:49.893Z,0.40
2019-04-25T08:44:17.161Z,0.45
2019-04-25T08:46:48.418Z,0.30
2019-04-25T08:58:43.667Z,0.40
2019-04-25T09:22:36.512Z,0.40
2019-04-25T09:25:05.058Z,0.50
2019-04-25T09:27:34.345Z,0.35
2019-04-25T09:30:01.545Z,0.45
2019-04-25T09:32:28.821Z,0.40
2019-04-25T09:34:56.096Z,0.45
2019-04-25T09:37:24.629Z,0.50
2019-04-25T09:40:05.562Z,0.60
2019-04-25T09:42:33.839Z,0.50
2019-04-25T09:45:06.218Z,0.50
2019-04-25T09:47:33.621Z,0.47
2019-04-25T09:50:04.054Z,0.90
2019-04-25T09:52:31.731Z,0.50
2019-04-25T09:55:00.655Z,0.60
2019-04-25T09:57:29.827Z,0.50
2019-04-25T09:59:57.064Z,0.70
2019-04-25T10:02:24.456Z,0.60
2019-04-25T10:04:51.770Z,0.60
2019-04-25T10:07:19.000Z,0.50
2019-04-25T10:09:46.301Z,0.50
2019-04-25T10:12:14.642Z,0.78
2019-04-25T10:14:49.315Z,0.65
2019-04-25T10:17:16.616Z,0.40
2019-04-25T10:19:43.880Z,0.62
2019-04-25T10:22:11.112Z,0.55
2019-04-25T10:24:38.535Z,0.40
2019-04-25T10:27:06.080Z,0.50
2019-04-25T10:29:41.259Z,0.65
2019-04-25T10:32:02.412Z,0.60
2019-04-25T10:34:29.793Z,0.88
2019-04-25T10:37:00.779Z,0.60
2019-04-25T10:39:28.095Z,0.47
2019-04-25T10:41:55.494Z,0.68
2019-04-25T10:44:24.386Z,0.60
2019-04-25T10:46:54.189Z,0.60
2019-04-25T10:49:20.990Z,0.72
2019-04-25T10:51:48.263Z,0.40
2019-04-25T10:54:15.507Z,0.50
2019-04-25T10:56:45.732Z,0.50
2019-04-25T10:59:11.721Z,0.40
2019-04-25T11:01:39.194Z,0.50
2019-04-25T11:04:14.432Z,0.35
2019-04-25T11:06:41.994Z,0.30
2019-04-25T11:09:13.783Z,0.30
2019-04-25T11:11:41.561Z,0.60
2019-04-25T11:14:09.376Z,1.00
2019-04-25T11:16:36.735Z,0.33
2019-04-25T11:19:04.482Z,0.37
2019-04-25T11:21:33.217Z,0.20
2019-04-25T11:24:00.722Z,0.60
2019-04-25T11:26:28.385Z,0.75
2019-04-25T11:28:56.289Z,0.50
2019-04-25T11:31:25.395Z,0.42
2019-04-25T11:33:54.387Z,0.40
2019-04-25T11:36:21.624Z,0.50
2019-04-25T11:38:51.697Z,0.50
2019-04-25T11:41:21.317Z,0.30
2019-04-25T11:43:48.767Z,0.60
2019-04-25T11:46:17.670Z,0.57
2019-04-25T11:48:45.476Z,0.80
2019-04-25T11:51:13.909Z,0.78
2019-04-25T11:53:41.214Z,0.80
2019-04-25T11:56:09.128Z,0.40
2019-04-25T11:58:36.333Z,0.60
2019-04-25T12:01:05.116Z,0.72
2019-04-25T12:03:33.652Z,0.42
2019-04-25T12:06:01.310Z,0.60
2019-04-25T12:08:28.870Z,0.40
2019-04-25T12:10:56.107Z,0.53
2019-04-25T12:13:24.265Z,0.40
2019-04-25T12:15:51.856Z,0.40
2019-04-25T12:18:19.340Z,0.40
2019-04-25T12:20:47.336Z,0.70
2019-04-25T12:23:17.913Z,0.45
2019-04-25T12:25:46.255Z,0.60
2019-04-25T12:28:14.148Z,0.50
2019-04-25T12:30:41.637Z,0.30
2019-04-25T12:33:20.694Z,0.28
2019-04-25T12:35:37.865Z,0.50
2019-04-25T12:38:05.069Z,0.50
2019-04-25T12:40:34.247Z,0.53
2019-04-25T12:43:03.160Z,0.40
2019-04-25T12:45:38.392Z,0.30
2019-04-25T12:48:10.191Z,0.40
2019-04-25T12:50:37.489Z,0.60
2019-04-25T12:53:04.689Z,0.60
2019-04-25T12:55:32.016Z,0.60
2019-04-25T12:57:59.289Z,0.60
2019-04-25T13:00:27.664Z,0.50
2019-04-25T13:02:56.457Z,0.50
2019-04-25T13:05:24.461Z,0.40
2019-04-25T13:07:54.249Z,0.55
2019-04-25T13:10:20.868Z,0.67
2019-04-25T13:12:48.222Z,0.57
2019-04-25T13:15:15.566Z,0.73
2019-04-25T13:17:43.673Z,0.50
2019-04-25T13:20:11.035Z,0.60
2019-04-25T13:22:38.421Z,0.68
2019-04-25T13:25:06.902Z,0.50
2019-04-25T13:27:36.235Z,0.40
2019-04-25T13:30:06.779Z,0.33
2019-04-25T13:32:52.141Z,0.20
2019-04-25T13:35:20.981Z,0.30
2019-04-25T13:37:48.476Z,0.37
2019-04-25T13:40:17.123Z,0.50
2019-04-25T13:42:44.856Z,0.40
2019-04-25T13:45:14.305Z,0.40
2019-04-25T13:47:42.089Z,0.40
2019-04-25T13:50:09.461Z,0.60
2019-04-25T13:52:37.220Z,0.60
2019-04-25T13:55:05.005Z,0.50
2019-04-25T13:57:32.399Z,0.50
2019-04-25T13:59:59.704Z,0.42
2019-04-25T14:02:26.933Z,0.42
2019-04-25T14:04:54.131Z,0.37
2019-04-25T14:07:21.833Z,0.23
2019-04-25T14:09:49.419Z,0.30
2019-04-25T14:12:17.192Z,0.30
2019-04-25T14:14:44.524Z,0.20
2019-04-25T14:17:13.896Z,0.40
2019-04-25T14:19:51.923Z,0.20
2019-04-25T14:22:19.489Z,0.40
2019-04-25T14:24:46.841Z,0.20
2019-04-25T14:27:15.132Z,0.40
2019-04-25T14:29:43.901Z,0.30
2019-04-25T14:32:13.006Z,0.20
2019-04-25T14:34:40.227Z,0.20
2019-04-25T14:37:07.425Z,0.35
2019-04-25T14:39:34.799Z,0.20
2019-04-25T14:42:02.004Z,0.10
2019-04-25T14:44:29.211Z,0.20
2019-04-25T14:46:56.881Z,0.10
2019-04-25T14:49:24.147Z,0.20
2019-04-25T14:51:51.352Z,0.30
2019-04-25T14:54:34.448Z,0.17
2019-04-25T14:59:31.480Z,0.62
2019-04-25T15:01:59.476Z,0.20
2019-04-25T15:04:26.685Z,0.20
2019-04-25T15:06:53.952Z,0.20
2019-04-25T15:09:22.372Z,0.10
2019-04-25T15:11:50.828Z,0.20
2019-04-25T15:14:18.480Z,0.10
2019-04-25T15:16:45.681Z,0.10
2019-04-25T15:19:12.976Z,0.23
2019-04-25T15:21:40.243Z,0.10
2019-04-25T15:24:07.444Z,0.20
2019-04-25T15:26:35.148Z,0.20
2019-04-25T15:29:02.604Z,0.10
2019-04-25T15:31:30.290Z,0.20
2019-04-25T15:33:57.673Z,0.15
2019-04-25T15:36:29.300Z,0.33
2019-04-25T15:39:16.450Z,0.10
2019-04-25T15:41:54.272Z,0.10
2019-04-25T15:44:33.220Z,0.42
2019-04-25T15:47:02.229Z,0.20
2019-04-25T15:49:29.436Z,0.23
2019-04-25T15:51:57.212Z,0.15
2019-04-25T15:54:25.300Z,0.10
2019-04-25T15:56:53.813Z,0.00
2019-04-25T15:59:21.286Z,0.00
2019-04-25T16:01:48.553Z,0.10
2019-04-25T16:04:15.833Z,0.00
2019-04-25T16:06:43.185Z,0.00
2019-04-25T16:09:10.605Z,0.13
2019-04-25T16:11:38.036Z,0.50
2019-04-25T16:14:05.548Z,0.50
2019-04-25T16:16:33.258Z,0.47
2019-04-25T16:19:00.569Z,0.20
2019-04-25T16:21:28.176Z,0.20
2019-04-25T16:23:56.320Z,0.10
2019-04-25T16:26:24.055Z,0.10
2019-04-25T16:28:51.363Z,0.10
2019-04-25T16:31:20.276Z,0.10
2019-04-25T16:33:47.792Z,0.08
2019-04-25T16:36:15.641Z,0.10
2019-04-25T16:38:43.182Z,0.10
2019-04-25T16:41:15.748Z,0.10
2019-04-25T16:43:44.900Z,0.20
2019-04-25T16:46:12.845Z,0.10
2019-04-25T16:48:41.069Z,0.10
2019-04-25T16:51:08.605Z,0.20
2019-04-25T16:53:35.804Z,0.28
2019-04-25T16:56:03.603Z,0.30
2019-04-25T16:58:30.947Z,0.30
2019-04-25T17:00:59.848Z,0.50
2019-04-25T17:03:27.564Z,0.40
2019-04-25T17:05:55.332Z,0.50
2019-04-25T17:08:23.180Z,0.33
2019-04-25T17:10:50.455Z,0.30
2019-04-25T17:13:17.956Z,0.30
2019-04-25T17:16:03.790Z,0.53
2019-04-25T17:18:44.260Z,0.47
2019-04-25T17:21:11.795Z,0.45
2019-04-25T17:23:39.686Z,0.50
2019-04-25T17:26:07.188Z,0.30
2019-04-25T17:28:36.923Z,0.57
2019-04-25T17:31:24.684Z,0.45
2019-04-25T17:33:59.842Z,0.55
2019-04-25T17:36:40.797Z,0.40
2019-04-25T17:39:12.533Z,0.50
2019-04-25T17:41:40.490Z,0.35
2019-04-25T17:44:07.856Z,0.30
2019-04-25T17:46:36.060Z,0.20
2019-04-25T17:49:03.508Z,0.20
2019-04-25T17:51:31.210Z,0.45
2019-04-25T17:53:58.480Z,0.50
2019-04-25T17:56:25.681Z,0.30
2019-04-25T17:58:53.061Z,0.30
2019-04-25T18:01:21.899Z,0.20
2019-04-25T18:03:49.099Z,0.42
2019-04-25T18:06:16.422Z,0.20
2019-04-25T18:08:44.116Z,0.30
2019-04-25T18:11:11.752Z,0.40
2019-04-25T18:13:40.219Z,0.40
2019-04-25T18:16:09.974Z,0.30
2019-04-25T18:18:58.054Z,0.50
2019-04-25T18:21:25.332Z,0.30
2019-04-25T18:24:06.358Z,0.30
2019-04-25T18:26:35.320Z,0.33
2019-04-25T18:29:07.162Z,0.30
2019-04-25T18:31:35.583Z,0.30
2019-04-25T18:34:07.773Z,0.30
2019-04-25T18:36:42.911Z,0.20
2019-04-25T18:39:12.021Z,0.20
2019-04-25T18:41:41.839Z,0.28
2019-04-25T18:44:15.253Z,0.20
2019-04-25T18:46:44.650Z,0.10
2019-04-25T18:49:12.078Z,0.30
2019-04-25T18:51:40.627Z,0.25
2019-04-25T18:54:18.223Z,0.30
2019-04-25T18:57:03.377Z,0.28
2019-04-25T18:59:50.240Z,0.20
2019-04-25T19:02:35.876Z,0.20
2019-04-25T19:05:19.740Z,0.25
2019-04-25T19:07:47.475Z,0.20
2019-04-25T19:10:15.275Z,0.23
2019-04-25T19:12:43.206Z,0.10
2019-04-25T19:15:10.905Z,0.20
2019-04-25T19:17:40.400Z,0.20
2019-04-25T19:20:08.525Z,0.20
2019-04-25T19:22:36.752Z,0.17
2019-04-25T19:25:03.949Z,0.20
2019-04-25T19:27:31.560Z,0.20
2019-04-25T19:29:58.978Z,0.10
2019-04-25T19:32:27.292Z,0.13
2019-04-25T19:34:54.497Z,0.10
2019-04-25T19:37:23.505Z,0.10
2019-04-25T19:39:55.501Z,0.10
2019-04-25T19:42:33.406Z,0.20
2019-04-25T19:45:00.605Z,0.10
2019-04-25T19:47:28.852Z,0.20
2019-04-25T19:49:56.088Z,0.10
2019-04-25T19:52:23.291Z,0.10
2019-04-25T19:54:50.490Z,0.10
2019-04-25T19:57:18.133Z,0.20
2019-04-25T19:59:46.446Z,0.10
2019-04-25T20:02:15.304Z,0.10
2019-04-25T20:04:51.119Z,0.10
2019-04-25T20:07:20.012Z,0.20
2019-04-25T20:09:51.769Z,0.28
2019-04-25T20:12:19.588Z,0.10
2019-04-25T20:14:47.163Z,0.20
2019-04-25T20:17:14.452Z,0.10
2019-04-25T20:19:41.698Z,0.10
2019-04-25T20:22:09.281Z,0.10
2019-04-25T20:24:36.493Z,0.10
2019-04-25T20:27:03.817Z,0.10
2019-04-25T20:29:31.017Z,0.30
2019-04-25T20:31:58.219Z,0.10
2019-04-25T20:34:25.699Z,0.10
2019-04-25T20:36:53.697Z,0.10
2019-04-25T20:39:20.997Z,0.10
2019-04-25T20:41:48.257Z,0.10
2019-04-25T20:44:15.538Z,0.10
2019-04-25T20:46:42.808Z,0.10
2019-04-25T20:49:10.232Z,0.10
2019-04-25T20:51:37.510Z,0.10
2019-04-25T20:54:05.058Z,0.10
2019-04-25T20:56:32.298Z,0.10
2019-04-25T20:58:59.565Z,0.10
2019-04-25T21:01:26.841Z,0.10
2019-04-25T21:03:54.149Z,0.00
2019-04-25T21:06:32.181Z,0.10
2019-04-25T21:08:59.444Z,0.10
2019-04-25T21:11:26.716Z,0.10
2019-04-25T21:14:01.664Z,0.10
2019-04-25T21:16:47.701Z,0.10
2019-04-25T21:19:22.063Z,0.10
2019-04-25T21:21:49.524Z,0.10
2019-04-25T21:24:17.844Z,0.03
2019-04-25T21:26:45.120Z,0.25
2019-04-25T21:29:12.392Z,0.10
2019-04-25T21:31:39.881Z,0.05
2019-04-25T21:34:07.096Z,0.00
2019-04-25T21:36:34.693Z,0.08
2019-04-25T21:39:02.156Z,0.20
2019-04-25T21:41:37.533Z,0.00
2019-04-25T21:44:05.594Z,0.10
2019-04-25T21:46:33.185Z,0.20
2019-04-25T21:49:01.068Z,0.10
2019-04-25T21:51:31.547Z,0.20
2019-04-25T21:53:59.970Z,0.10
2019-04-25T21:56:27.641Z,0.10
2019-04-25T21:58:55.630Z,0.10
2019-04-25T22:01:24.965Z,0.10
2019-04-25T22:03:52.262Z,0.10
2019-04-25T22:06:20.393Z,0.10
2019-04-25T22:08:47.685Z,0.10
2019-04-25T22:11:14.885Z,0.05
2019-04-25T22:13:42.520Z,0.10
2019-04-25T22:16:10.096Z,0.00
2019-04-25T22:18:37.648Z,0.00
2019-04-25T22:21:05.337Z,0.00
2019-04-25T22:23:33.312Z,0.10
2019-04-25T22:26:01.045Z,0.10
2019-04-25T22:28:29.573Z,0.10
2019-04-25T22:30:59.181Z,0.10
2019-04-25T22:33:44.527Z,0.10
2019-04-25T22:36:13.637Z,0.10
2019-04-25T22:38:40.965Z,0.10
2019-04-25T22:41:08.254Z,0.10
2019-04-25T22:43:37.269Z,0.10
2019-04-25T22:46:04.693Z,0.10
2019-04-25T22:48:50.191Z,0.10
2019-04-25T22:51:17.666Z,0.10
2019-04-25T22:53:45.480Z,0.10
2019-04-25T22:56:12.763Z,0.10
2019-04-25T22:58:40.488Z,0.10
2019-04-25T23:01:09.596Z,0.10
2019-04-25T23:03:51.034Z,0.10
2019-04-25T23:06:18.632Z,0.10
2019-04-25T23:08:45.932Z,0.20
2019-04-25T23:11:13.279Z,0.00
2019-04-25T23:13:40.851Z,0.10
2019-04-25T23:16:08.991Z,0.10
2019-04-25T23:18:36.828Z,0.10
2019-04-25T23:21:04.257Z,0.20
2019-04-25T23:23:33.108Z,0.30
2019-04-25T23:26:01.977Z,0.13
2019-04-25T23:28:31.118Z,0.10
2019-04-25T23:31:06.507Z,0.25
2019-04-25T23:33:33.885Z,0.35
2019-04-25T23:36:01.356Z,0.30
2019-04-25T23:38:28.758Z,0.30
2019-04-25T23:40:56.456Z,0.23
2019-04-25T23:43:24.050Z,0.30
2019-04-25T23:45:51.392Z,0.30
2019-04-25T23:48:19.317Z,0.20
2019-04-25T23:50:46.594Z,0.40
2019-04-25T23:53:14.962Z,0.33
2019-04-25T23:55:42.638Z,0.20
2019-04-25T23:58:10.516Z,0.30
